Airfield :
LOGIN :

Register | Disclaimer

   EN    FR    IT 

 










Legend :    VFR   Marginal VFR   IFR   Intensive IFR   Very Intensive IFR
Visi :
Ceiling :
>= 8 km
>= 3000ft
5 to 8 km
1000 to 3000 ft
1500m to 5 km
500 to 1000 ft
800 to 1500m
200 to 500 ft
< 800m
< 200 ft
Symbols :   Thunderstorms  Fog  Heavy snow  Heavy precipitations  Wind > 20 kt
SIGMETs :     Misc.  Thunderstorms  Icing  Turbulence  Mountain Waves  Volcanic Ashes







- Airport Elevation : 20 ft


EBFN - Koksijde

CURRENT METAR :
  • 220355Z 21004KT 5000 -DZRA SCT010 BKN031 BKN070 13/13 Q1019 GRN

EXPIRED METARs :
  • 220325Z 21003KT 5000 -DZRA SCT010 BKN031 BKN070 13/13 Q1019 GRN
  • 220308Z 20003KT 5000 -DZRA SCT010 BKN035 BKN060 13/13 Q1019 GRN
  • 220255Z AUTO VRB02KT 6000 -RA OVC035/// 14/14 Q1019 WHT
  • 220241Z AUTO 25003KT 4800 -RA BKN043/// OVC063/// 14/14 Q1019 GRN
  • 220225Z AUTO 23003KT 8000 -RA FEW012/// OVC043/// 14/14 Q1019 BLU
  • 220155Z AUTO 20003KT 9000 SCT013/// OVC041/// 14/14 Q1019 GRN
  • 220147Z AUTO 19004KT 9000 SCT014/// BKN042/// OVC052/// 14/13 Q1019 GRN
  • 220141Z AUTO 20003KT 7000 -RA FEW025/// BKN046/// OVC052/// 14/14 Q1019 WHT
  • 220125Z AUTO VRB02KT 8000 -RA FEW045/// BKN052/// OVC068/// 14/13 Q1019 BLU

TAF TAF EBFN
Valid from the 21 at 19:00 until the 22 at 07:00 UTC


211553Z 2119/2207 18010KT 9999 FEW025 SCT150 BKN220
BECMG 2123/2201 9999 BKN040
TEMPO 2201/2207 VRB03KT 6000 -RA SCT008 BKN030
No reported NOTAMs for that airfield.



MET'MAP, your aeronautical weather chart ! - Copyright ORBIFLY December 2007 - Disclaimer

ORBIFLY MET'MAP TEAM :

Programming & Development : Alexandra Zaïnal
Concept & Development : Baudouin d'Aumeries
Co-Development & Prog : Marc-Olivier Méhu
Technical & hardware support : Manuel Goepfert

Contact : metmap@orbifly.com




SOURCES & CREDITS :

   NOAA